CYGL

La Grande Rivière Airport

La Grande Rivière, Quebec, Canada
METAR CYGL 120900Z 12006KT 15SM SKC M27/M30 A3015 RMK SLP238
Observed Flight Rules
Dec-12 @ 09:00 UTC (60 minutes ago) Visual Flight Rules
Wind Visibility Clouds
120° at 6 knots 15 miles
  • Clear skies
Temperatures Readings
Current -27°C / -17°F
Dewpoint -30°C / -22°F
Humidity 76%
Altimeter 30.15" Hg
Pressure 1023.8 hPa
Elevation 195
METAR CYGL 120900Z 12006KT 15SM SKC M27/M30 A3015 RMK SLP238
Observed Flight Rules
Dec-12 @ 09:00 UTC
(60 minutes ago)
VFR
Wind Visibility
120° at 6 knots 15 miles
Clouds
  • Clear skies
Temperature Dewpoint
-27°C / -17°F -30°C / -22°F
Humidity Altimeter Pressure
76% 30.15" Hg 1023.8 hPa